createdAt,value
2023-04-16T00:01:26.176Z,8.40
2023-04-16T00:03:53.341Z,8.40
2023-04-16T00:06:20.689Z,8.40
2023-04-16T00:08:47.927Z,8.40
2023-04-16T00:11:16.532Z,8.60
2023-04-16T00:13:43.769Z,8.40
2023-04-16T00:16:10.911Z,8.30
2023-04-16T00:18:38.025Z,8.30
2023-04-16T00:21:07.780Z,8.30
2023-04-16T00:23:34.899Z,8.30
2023-04-16T00:26:04.444Z,8.30
2023-04-16T00:28:31.397Z,8.30
2023-04-16T00:30:58.474Z,8.20
2023-04-16T00:33:30.079Z,8.20
2023-04-16T00:35:57.130Z,8.20
2023-04-16T00:38:24.046Z,8.20
2023-04-16T00:40:53.543Z,8.10
2023-04-16T00:43:25.560Z,8.10
2023-04-16T00:45:56.639Z,8.10
2023-04-16T00:48:23.759Z,8.10
2023-04-16T00:50:56.562Z,8.10
2023-04-16T00:53:26.083Z,8.10
2023-04-16T00:55:53.137Z,8.10
2023-04-16T00:58:20.401Z,8.10
2023-04-16T01:00:53.508Z,8.00
2023-04-16T01:03:20.823Z,8.00
2023-04-16T01:05:50.982Z,8.00
2023-04-16T01:08:24.407Z,8.00
2023-04-16T01:10:51.433Z,8.00
2023-04-16T01:13:18.148Z,7.90
2023-04-16T01:15:45.049Z,7.90
2023-04-16T01:18:21.550Z,8.00
2023-04-16T01:20:49.662Z,8.00
2023-04-16T01:23:18.745Z,7.90
2023-04-16T01:25:46.397Z,7.90
2023-04-16T01:28:13.504Z,7.90
2023-04-16T01:30:40.397Z,7.90
2023-04-16T01:33:08.255Z,7.90
2023-04-16T01:35:35.501Z,7.90
2023-04-16T01:38:02.906Z,7.90
2023-04-16T01:40:29.896Z,7.70
2023-04-16T01:42:56.767Z,7.90
2023-04-16T01:45:23.556Z,7.80
2023-04-16T01:47:51.380Z,7.80
2023-04-16T01:50:18.933Z,7.80
2023-04-16T01:52:45.965Z,7.80
2023-04-16T01:55:16.117Z,7.80
2023-04-16T01:57:43.051Z,7.70
2023-04-16T02:00:10.199Z,7.70
2023-04-16T02:02:37.276Z,7.70
2023-04-16T02:05:04.488Z,7.70
2023-04-16T02:07:34.389Z,7.70
2023-04-16T02:10:01.312Z,7.60
2023-04-16T02:12:28.187Z,7.70
2023-04-16T02:14:56.401Z,7.70
2023-04-16T02:17:23.219Z,7.70
2023-04-16T02:19:50.200Z,7.70
2023-04-16T02:22:17.124Z,7.70
2023-04-16T02:24:44.034Z,7.60
2023-04-16T02:27:12.134Z,7.70
2023-04-16T02:29:39.165Z,7.60
2023-04-16T02:32:06.733Z,7.60
2023-04-16T02:34:34.912Z,7.50
2023-04-16T02:37:01.944Z,7.60
2023-04-16T02:39:28.891Z,7.60
2023-04-16T02:41:56.340Z,7.60
2023-04-16T02:44:23.366Z,7.80
2023-04-16T02:46:50.484Z,7.50
2023-04-16T02:49:17.460Z,7.60
2023-04-16T02:51:44.414Z,7.60
2023-04-16T02:54:13.932Z,7.80
2023-04-16T02:56:40.997Z,7.50
2023-04-16T02:59:08.176Z,7.70
2023-04-16T03:01:35.276Z,7.50
2023-04-16T03:04:02.420Z,7.50
2023-04-16T03:06:29.272Z,7.70
2023-04-16T03:08:56.336Z,7.50
2023-04-16T03:11:23.863Z,7.70
2023-04-16T03:13:50.907Z,7.50
2023-04-16T03:16:17.919Z,7.80
2023-04-16T03:18:47.954Z,7.50
2023-04-16T03:21:15.029Z,7.50
2023-04-16T03:23:42.167Z,7.50
2023-04-16T03:26:10.847Z,7.50
2023-04-16T03:28:37.925Z,7.70
2023-04-16T03:31:05.216Z,7.50
2023-04-16T03:33:39.576Z,7.50
2023-04-16T03:36:06.910Z,7.50
2023-04-16T03:38:33.853Z,7.50
2023-04-16T03:41:01.134Z,7.50
2023-04-16T03:43:28.006Z,7.50
2023-04-16T03:45:55.270Z,7.50
2023-04-16T03:48:22.123Z,7.50
2023-04-16T03:50:49.077Z,7.60
2023-04-16T03:53:16.289Z,7.60
2023-04-16T03:55:43.196Z,7.60
2023-04-16T03:58:10.290Z,7.60
2023-04-16T04:00:37.247Z,7.60
2023-04-16T04:03:04.380Z,7.50
2023-04-16T04:05:31.414Z,7.50
2023-04-16T04:07:58.271Z,7.60
2023-04-16T04:10:25.671Z,7.60
2023-04-16T04:12:53.180Z,7.70
2023-04-16T04:15:20.043Z,7.50
2023-04-16T04:17:51.187Z,7.50
2023-04-16T04:20:19.313Z,7.50
2023-04-16T04:22:46.360Z,7.50
2023-04-16T04:25:13.288Z,7.50
2023-04-16T04:27:40.165Z,7.50
2023-04-16T04:30:07.951Z,7.50
2023-04-16T04:32:37.400Z,7.60
2023-04-16T04:35:04.415Z,7.80
2023-04-16T04:37:32.029Z,7.40
2023-04-16T04:39:58.952Z,7.60
2023-04-16T04:42:26.357Z,7.60
2023-04-16T04:44:53.318Z,7.60
2023-04-16T04:47:20.302Z,7.90
2023-04-16T04:49:47.297Z,7.80
2023-04-16T04:52:14.326Z,7.70
2023-04-16T04:54:41.977Z,7.80
2023-04-16T04:57:09.142Z,7.70
2023-04-16T04:59:36.451Z,7.80
2023-04-16T05:02:03.701Z,7.90
2023-04-16T05:04:31.424Z,7.70
2023-04-16T05:07:02.632Z,7.90
2023-04-16T05:09:29.771Z,7.90
2023-04-16T05:11:58.968Z,8.10
2023-04-16T05:14:26.585Z,7.90
2023-04-16T05:16:54.387Z,8.00
2023-04-16T05:19:21.370Z,8.00
2023-04-16T05:21:48.315Z,8.00
2023-04-16T05:24:15.265Z,8.10
2023-04-16T05:26:42.150Z,8.10
2023-04-16T05:29:14.914Z,8.10
2023-04-16T05:31:41.946Z,8.20
2023-04-16T05:34:09.165Z,8.00
2023-04-16T05:36:36.506Z,8.20
2023-04-16T05:39:06.207Z,8.50
2023-04-16T05:41:33.354Z,8.40
2023-04-16T05:44:09.355Z,8.30
2023-04-16T05:46:48.354Z,8.30
2023-04-16T05:49:15.843Z,8.40
2023-04-16T05:51:42.811Z,8.40
2023-04-16T05:54:09.996Z,8.50
2023-04-16T05:56:41.919Z,8.50
2023-04-16T05:59:11.984Z,8.60
2023-04-16T06:01:39.234Z,8.50
2023-04-16T06:04:06.648Z,8.60
2023-04-16T06:06:33.929Z,8.70
2023-04-16T06:09:17.889Z,8.80
2023-04-16T06:11:45.125Z,9.10
2023-04-16T06:14:12.121Z,8.90
2023-04-16T06:16:39.119Z,8.90
2023-04-16T06:19:06.339Z,9.00
2023-04-16T06:21:38.076Z,9.10
2023-04-16T06:25:03.863Z,9.10
2023-04-16T06:28:00.198Z,9.10
2023-04-16T06:31:02.612Z,9.20
2023-04-16T06:33:27.893Z,9.30
2023-04-16T06:36:41.827Z,9.40
2023-04-16T06:39:06.125Z,9.50
2023-04-16T06:41:39.145Z,9.60
2023-04-16T06:44:12.855Z,9.80
2023-04-16T06:46:52.729Z,9.70
2023-04-16T06:50:23.177Z,9.80
2023-04-16T07:10:23.715Z,10.40
2023-04-16T07:12:54.621Z,10.50
2023-04-16T07:15:33.807Z,10.60
2023-04-16T07:25:00.896Z,10.90
2023-04-16T07:27:34.821Z,10.90
2023-04-16T07:45:58.901Z,11.40
2023-04-16T07:49:38.627Z,11.70
2023-04-16T07:56:11.294Z,11.80
2023-04-16T07:59:18.407Z,11.90
2023-04-16T08:02:13.448Z,12.00
2023-04-16T08:22:31.256Z,12.60
2023-04-16T08:25:48.835Z,12.80
2023-04-16T08:31:11.334Z,13.00
2023-04-16T08:33:49.263Z,13.20
2023-04-16T08:39:13.488Z,13.30
2023-04-16T08:41:54.459Z,13.50
2023-04-16T08:44:25.961Z,13.60
2023-04-16T08:47:08.198Z,13.70
2023-04-16T08:49:47.038Z,13.80
2023-04-16T08:52:22.250Z,13.90
2023-04-16T08:55:11.659Z,14.10
2023-04-16T08:58:26.718Z,14.20
2023-04-16T09:03:52.577Z,14.40
2023-04-16T09:06:38.889Z,14.60
2023-04-16T09:09:10.484Z,14.70
2023-04-16T09:14:41.989Z,14.90
2023-04-16T09:17:09.240Z,15.10
2023-04-16T09:19:40.063Z,15.20
2023-04-16T09:22:19.204Z,15.20
2023-04-16T09:24:46.528Z,15.20
2023-04-16T09:27:15.851Z,15.30
2023-04-16T09:29:43.290Z,15.30
2023-04-16T09:32:13.993Z,15.40
2023-04-16T09:34:58.124Z,15.40
2023-04-16T09:37:26.172Z,15.50
2023-04-16T09:40:04.150Z,15.60
2023-04-16T09:42:33.355Z,15.70
2023-04-16T09:45:22.006Z,15.70
2023-04-16T09:48:33.741Z,15.70
2023-04-16T09:51:17.059Z,15.80
2023-04-16T09:53:44.153Z,15.80
2023-04-16T09:56:12.123Z,15.80
2023-04-16T09:58:39.080Z,15.90
2023-04-16T10:01:22.907Z,15.80
2023-04-16T10:03:49.987Z,15.90
2023-04-16T10:06:19.652Z,15.90
2023-04-16T10:08:50.706Z,15.90
2023-04-16T10:11:17.771Z,16.00
2023-04-16T10:13:45.013Z,16.00
2023-04-16T10:16:12.253Z,16.10
2023-04-16T10:18:43.005Z,16.10
2023-04-16T10:21:12.738Z,16.10
2023-04-16T10:23:40.408Z,16.10
2023-04-16T10:26:10.145Z,16.20
2023-04-16T10:28:39.656Z,16.20
2023-04-16T10:31:08.338Z,16.30
2023-04-16T10:33:36.540Z,16.30
2023-04-16T10:36:17.359Z,16.30
2023-04-16T10:38:48.863Z,16.40
2023-04-16T10:41:15.892Z,16.50
2023-04-16T10:43:50.251Z,16.40
2023-04-16T10:46:33.897Z,16.50
2023-04-16T10:49:01.899Z,16.60
2023-04-16T10:51:29.056Z,16.60
2023-04-16T10:53:57.676Z,16.50
2023-04-16T10:56:26.332Z,16.70
2023-04-16T10:58:55.368Z,16.70
2023-04-16T11:01:38.612Z,16.80
2023-04-16T11:04:21.332Z,16.80
2023-04-16T11:07:00.941Z,16.80
2023-04-16T11:09:52.469Z,16.70
2023-04-16T11:12:20.829Z,16.60
2023-04-16T11:14:51.194Z,16.60
2023-04-16T11:17:22.749Z,16.70
2023-04-16T11:19:49.802Z,16.80
2023-04-16T11:22:17.547Z,16.90
2023-04-16T11:24:45.690Z,17.00
2023-04-16T11:27:16.226Z,17.10
2023-04-16T11:29:45.063Z,17.10
2023-04-16T11:32:26.228Z,17.20
2023-04-16T11:35:09.633Z,17.30
2023-04-16T11:37:37.700Z,17.20
2023-04-16T11:40:11.000Z,17.30
2023-04-16T11:42:40.616Z,17.30
2023-04-16T11:45:08.657Z,17.40
2023-04-16T11:47:52.123Z,17.40
2023-04-16T11:50:21.036Z,17.30
2023-04-16T11:52:48.122Z,17.30
2023-04-16T11:55:15.580Z,17.30
2023-04-16T11:57:42.706Z,17.30
2023-04-16T12:00:15.968Z,17.30
2023-04-16T12:02:44.918Z,17.20
2023-04-16T12:05:39.083Z,17.20
2023-04-16T12:08:10.340Z,17.30
2023-04-16T12:10:38.646Z,17.40
2023-04-16T12:13:15.734Z,17.50
2023-04-16T12:15:46.430Z,17.50
2023-04-16T12:18:14.355Z,17.50
2023-04-16T12:20:45.079Z,17.60
2023-04-16T12:23:25.985Z,17.70
2023-04-16T12:25:55.322Z,17.80
2023-04-16T12:28:32.758Z,17.80
2023-04-16T12:30:59.928Z,17.90
2023-04-16T12:33:40.556Z,18.00
2023-04-16T12:36:20.144Z,18.10
2023-04-16T12:38:47.288Z,18.20
2023-04-16T12:41:14.100Z,18.30
2023-04-16T12:43:42.434Z,18.50
2023-04-16T12:46:09.724Z,18.50
2023-04-16T12:48:36.719Z,18.60
2023-04-16T12:51:03.801Z,18.60
2023-04-16T12:53:30.892Z,18.80
2023-04-16T12:55:57.701Z,18.90
2023-04-16T12:58:24.497Z,19.00
2023-04-16T13:00:51.591Z,19.10
2023-04-16T13:03:25.954Z,19.30
2023-04-16T13:05:53.051Z,19.40
2023-04-16T13:08:20.163Z,19.60
2023-04-16T13:10:47.076Z,19.70
2023-04-16T13:13:16.612Z,19.80
2023-04-16T13:15:43.413Z,19.90
2023-04-16T13:18:10.446Z,20.10
2023-04-16T13:20:39.994Z,20.30
2023-04-16T13:23:07.366Z,20.70
2023-04-16T13:25:34.199Z,20.80
2023-04-16T13:28:01.396Z,20.80
2023-04-16T13:30:29.450Z,20.90
2023-04-16T13:32:56.886Z,20.70
2023-04-16T13:35:26.859Z,20.50
2023-04-16T13:37:53.699Z,20.30
2023-04-16T13:40:20.827Z,20.10
2023-04-16T13:42:47.715Z,19.70
2023-04-16T13:45:14.741Z,19.40
2023-04-16T13:47:44.590Z,19.30
2023-04-16T13:50:12.336Z,19.10
2023-04-16T13:52:45.478Z,19.10
2023-04-16T13:55:14.205Z,18.90
2023-04-16T13:57:43.431Z,19.20
2023-04-16T14:00:13.217Z,19.30
2023-04-16T14:02:50.693Z,19.40
2023-04-16T14:05:17.991Z,19.50
2023-04-16T14:07:45.647Z,19.50
2023-04-16T14:10:15.038Z,19.60
2023-04-16T14:12:42.738Z,19.80
2023-04-16T14:15:10.436Z,20.00
2023-04-16T14:17:37.716Z,20.00
2023-04-16T14:20:07.536Z,19.90
2023-04-16T14:22:34.710Z,19.90
2023-04-16T14:25:01.621Z,19.70
2023-04-16T14:27:28.780Z,19.60
2023-04-16T14:29:58.748Z,19.40
2023-04-16T14:32:26.159Z,19.20
2023-04-16T14:34:53.323Z,19.10
2023-04-16T14:37:20.216Z,18.90
2023-04-16T14:39:48.405Z,18.70
2023-04-16T14:42:15.258Z,18.60
2023-04-16T14:44:42.140Z,18.50
2023-04-16T14:47:14.425Z,18.50
2023-04-16T14:49:41.482Z,18.50
2023-04-16T14:52:11.186Z,18.30
2023-04-16T14:54:38.212Z,18.30
2023-04-16T14:57:04.987Z,18.30
2023-04-16T14:59:32.385Z,18.20
2023-04-16T15:01:59.527Z,18.20
2023-04-16T15:04:29.580Z,18.20
2023-04-16T15:06:59.288Z,18.20
2023-04-16T15:09:27.485Z,18.10
2023-04-16T15:11:54.682Z,18.00
2023-04-16T15:14:24.946Z,18.00
2023-04-16T15:16:51.859Z,18.00
2023-04-16T15:19:18.816Z,17.90
2023-04-16T15:21:47.516Z,17.90
2023-04-16T15:24:18.595Z,18.00
2023-04-16T15:26:45.452Z,17.90
2023-04-16T15:29:14.574Z,17.80
2023-04-16T15:31:43.961Z,17.70
2023-04-16T15:34:13.356Z,17.60
2023-04-16T15:36:40.527Z,17.50
2023-04-16T15:39:07.526Z,17.50
2023-04-16T15:41:53.382Z,17.50
2023-04-16T15:44:26.872Z,17.50
2023-04-16T15:46:56.290Z,17.50
2023-04-16T15:49:27.931Z,17.50
2023-04-16T15:51:54.909Z,17.60
2023-04-16T15:54:21.777Z,17.50
2023-04-16T15:56:48.622Z,17.50
2023-04-16T15:59:20.930Z,17.40
2023-04-16T16:01:48.572Z,17.40
2023-04-16T16:04:15.522Z,17.30
2023-04-16T16:06:42.757Z,17.20
2023-04-16T16:09:10.493Z,17.20
2023-04-16T16:11:38.448Z,17.20
2023-04-16T16:14:07.805Z,17.20
2023-04-16T16:16:35.251Z,17.10
2023-04-16T16:19:18.337Z,17.10
2023-04-16T16:21:45.456Z,17.10
2023-04-16T16:24:15.208Z,17.00
2023-04-16T16:26:42.253Z,17.00
2023-04-16T16:29:09.461Z,17.00
2023-04-16T16:31:36.575Z,16.90
2023-04-16T16:34:03.537Z,16.90
2023-04-16T16:36:32.388Z,16.90
2023-04-16T16:38:59.208Z,17.00
2023-04-16T16:41:31.066Z,17.00
2023-04-16T16:44:00.566Z,17.00
2023-04-16T16:46:27.395Z,17.00
2023-04-16T16:48:54.333Z,17.00
2023-04-16T16:51:21.638Z,16.90
2023-04-16T16:53:48.529Z,16.80
2023-04-16T16:56:18.407Z,16.70
2023-04-16T16:58:45.256Z,16.60
2023-04-16T17:01:12.134Z,16.60
2023-04-16T17:03:39.571Z,16.60
2023-04-16T17:06:06.988Z,16.60
2023-04-16T17:08:33.729Z,16.60
2023-04-16T17:11:05.261Z,16.60
2023-04-16T17:13:32.951Z,16.60
2023-04-16T17:15:59.901Z,16.50
2023-04-16T17:18:26.977Z,16.50
2023-04-16T17:20:53.979Z,16.40
2023-04-16T17:23:21.330Z,16.40
2023-04-16T17:25:50.756Z,16.30
2023-04-16T17:28:17.838Z,16.30
2023-04-16T17:30:45.224Z,16.30
2023-04-16T17:33:13.587Z,16.20
2023-04-16T17:38:57.431Z,16.20
2023-04-16T17:41:24.552Z,16.20
2023-04-16T17:43:51.613Z,16.30
2023-04-16T17:46:21.844Z,16.40
2023-04-16T17:48:49.009Z,16.50
2023-04-16T17:51:18.742Z,16.60
2023-04-16T17:53:45.585Z,16.60
2023-04-16T17:56:13.317Z,16.60
2023-04-16T17:58:40.269Z,16.60
2023-04-16T18:01:07.308Z,16.50
2023-04-16T18:03:34.551Z,16.50
2023-04-16T18:06:01.524Z,16.40
2023-04-16T18:08:31.261Z,16.30
2023-04-16T18:10:58.277Z,16.20
2023-04-16T18:13:25.505Z,16.10
2023-04-16T18:15:53.221Z,16.10
2023-04-16T18:18:21.534Z,16.00
2023-04-16T18:20:48.551Z,16.00
2023-04-16T18:23:15.441Z,15.90
2023-04-16T18:25:42.416Z,15.80
2023-04-16T18:28:24.608Z,15.80
2023-04-16T18:30:59.130Z,15.70
2023-04-16T18:33:58.391Z,15.70
2023-04-16T18:36:57.825Z,15.60
2023-04-16T18:39:24.885Z,15.60
2023-04-16T18:41:52.284Z,15.60
2023-04-16T18:44:23.393Z,15.60
2023-04-16T18:49:36.222Z,15.50
2023-04-16T18:52:03.388Z,15.50
2023-04-16T18:54:30.296Z,15.50
2023-04-16T18:56:59.061Z,15.40
2023-04-16T18:59:30.526Z,15.40
2023-04-16T19:01:57.519Z,15.30
2023-04-16T19:04:28.787Z,15.20
2023-04-16T19:06:58.530Z,15.20
2023-04-16T19:09:26.574Z,15.10
2023-04-16T19:11:53.379Z,15.10
2023-04-16T19:14:25.710Z,15.10
2023-04-16T19:16:55.958Z,15.00
2023-04-16T19:19:22.891Z,15.00
2023-04-16T19:21:49.920Z,14.90
2023-04-16T19:24:16.986Z,14.90
2023-04-16T19:26:43.755Z,14.80
2023-04-16T19:29:11.048Z,14.80
2023-04-16T19:31:38.274Z,14.80
2023-04-16T19:34:05.873Z,14.80
2023-04-16T19:36:32.945Z,14.70
2023-04-16T19:39:01.138Z,14.60
2023-04-16T19:41:28.272Z,14.60
2023-04-16T19:43:55.816Z,14.60
2023-04-16T19:46:35.910Z,14.60
2023-04-16T19:49:29.179Z,14.50
2023-04-16T19:52:52.523Z,14.50
2023-04-16T19:58:33.217Z,14.40
2023-04-16T20:01:05.816Z,14.30
2023-04-16T20:03:43.220Z,14.30
2023-04-16T20:06:13.221Z,14.30
2023-04-16T20:08:41.479Z,14.30
2023-04-16T20:11:08.763Z,14.20
2023-04-16T20:13:37.695Z,14.20
2023-04-16T20:16:06.056Z,14.20
2023-04-16T20:18:32.920Z,14.10
2023-04-16T20:21:04.044Z,14.10
2023-04-16T20:23:32.588Z,14.10
2023-04-16T20:25:59.628Z,14.10
2023-04-16T20:28:26.551Z,14.10
2023-04-16T20:30:54.334Z,14.10
2023-04-16T20:33:21.588Z,14.00
2023-04-16T20:35:49.219Z,14.00
2023-04-16T20:38:16.238Z,14.00
2023-04-16T20:40:45.283Z,14.00
2023-04-16T20:43:14.728Z,13.90
2023-04-16T20:45:46.021Z,13.90
2023-04-16T20:48:13.414Z,13.90
2023-04-16T20:50:40.835Z,13.90
2023-04-16T20:53:15.529Z,13.90
2023-04-16T20:55:46.157Z,13.80
2023-04-16T20:58:13.195Z,13.80
2023-04-16T21:00:45.517Z,13.80
2023-04-16T21:03:17.706Z,13.80
2023-04-16T21:05:53.426Z,13.80
2023-04-16T21:08:21.180Z,13.80
2023-04-16T21:10:48.472Z,13.70
2023-04-16T21:13:17.059Z,13.90
2023-04-16T21:15:47.458Z,13.70
2023-04-16T21:18:14.671Z,13.70
2023-04-16T21:20:41.640Z,13.70
2023-04-16T21:23:18.569Z,13.80
2023-04-16T21:25:45.748Z,13.70
2023-04-16T21:28:15.279Z,13.70
2023-04-16T21:30:42.466Z,13.70
2023-04-16T21:33:09.567Z,13.70
2023-04-16T21:35:39.914Z,13.60
2023-04-16T21:38:07.247Z,13.70
2023-04-16T21:40:35.124Z,13.70
2023-04-16T21:43:49.989Z,13.60
2023-04-16T21:46:33.072Z,13.70
2023-04-16T21:49:12.933Z,13.60
2023-04-16T21:51:40.820Z,13.70
2023-04-16T21:54:07.903Z,13.60
2023-04-16T21:56:35.276Z,13.60
2023-04-16T21:59:02.825Z,13.70
2023-04-16T22:01:33.392Z,13.60
2023-04-16T22:04:02.314Z,13.60
2023-04-16T22:06:39.985Z,13.60
2023-04-16T22:09:15.775Z,13.60
2023-04-16T22:11:46.563Z,13.60
2023-04-16T22:17:13.206Z,13.60
2023-04-16T22:19:59.263Z,13.60
2023-04-16T22:22:32.513Z,13.60
2023-04-16T22:25:05.385Z,13.50
2023-04-16T22:27:35.553Z,13.50
2023-04-16T22:30:30.997Z,13.50
2023-04-16T22:32:58.187Z,13.50
2023-04-16T22:35:45.490Z,13.50
2023-04-16T22:38:48.941Z,13.50
2023-04-16T22:41:16.523Z,13.70
2023-04-16T22:43:57.095Z,13.40
2023-04-16T22:47:00.835Z,13.40
2023-04-16T22:50:00.517Z,13.40
2023-04-16T22:52:27.885Z,13.40
2023-04-16T22:54:54.850Z,13.40
2023-04-16T22:57:25.955Z,13.40
2023-04-16T22:59:59.446Z,13.40
2023-04-16T23:03:00.982Z,13.30
2023-04-16T23:05:28.283Z,13.30
2023-04-16T23:08:22.482Z,13.30
2023-04-16T23:10:52.912Z,13.30
2023-04-16T23:13:19.967Z,13.30
2023-04-16T23:15:47.510Z,13.30
2023-04-16T23:18:21.685Z,13.30
2023-04-16T23:20:53.988Z,13.30
2023-04-16T23:23:26.360Z,13.30
2023-04-16T23:25:56.120Z,13.30
2023-04-16T23:28:23.309Z,13.30
2023-04-16T23:30:53.590Z,13.20
2023-04-16T23:33:20.878Z,13.20
2023-04-16T23:35:48.134Z,13.20
2023-04-16T23:38:24.125Z,13.20
2023-04-16T23:40:51.378Z,13.10
2023-04-16T23:43:21.032Z,13.20
2023-04-16T23:45:48.040Z,13.20
2023-04-16T23:48:15.028Z,13.10
2023-04-16T23:50:42.106Z,13.10
2023-04-16T23:53:09.225Z,13.10
2023-04-16T23:55:36.290Z,13.10
2023-04-16T23:58:03.574Z,13.10
